sensor_id;sensor_type;location;lat;lon;timestamp;pressure;altitude;pressure_sealevel;temperature;humidity
68871;BME280;55906;52.278;6.808;2023-04-10T00:02:00;102039.97;;;10.08;55.07
68871;BME280;55906;52.278;6.808;2023-04-10T00:04:31;102046.13;;;10.08;55.05
68871;BME280;55906;52.278;6.808;2023-04-10T00:06:58;102043.44;;;10.07;55.26
68871;BME280;55906;52.278;6.808;2023-04-10T00:09:25;102045.31;;;10.09;55.00
68871;BME280;55906;52.278;6.808;2023-04-10T00:11:53;102040.94;;;10.10;55.14
68871;BME280;55906;52.278;6.808;2023-04-10T00:14:21;102042.69;;;10.09;55.40
68871;BME280;55906;52.278;6.808;2023-04-10T00:16:49;102042.69;;;10.09;55.33
68871;BME280;55906;52.278;6.808;2023-04-10T00:19:16;102038.03;;;10.04;55.38
68871;BME280;55906;52.278;6.808;2023-04-10T00:21:45;102031.19;;;10.07;55.18
68871;BME280;55906;52.278;6.808;2023-04-10T00:24:12;102028.63;;;10.09;55.09
68871;BME280;55906;52.278;6.808;2023-04-10T00:26:39;102026.84;;;10.08;55.20
68871;BME280;55906;52.278;6.808;2023-04-10T00:29:06;102025.09;;;10.08;54.93
68871;BME280;55906;52.278;6.808;2023-04-10T00:31:34;102029.53;;;10.09;55.19
68871;BME280;55906;52.278;6.808;2023-04-10T00:34:21;102026.75;;;10.06;55.18
68871;BME280;55906;52.278;6.808;2023-04-10T00:36:50;102014.44;;;10.05;55.27
68871;BME280;55906;52.278;6.808;2023-04-10T00:39:16;102019.63;;;10.04;55.46
68871;BME280;55906;52.278;6.808;2023-04-10T00:41:45;102007.38;;;10.04;55.19
68871;BME280;55906;52.278;6.808;2023-04-10T00:44:16;102010.00;;;10.04;54.70
68871;BME280;55906;52.278;6.808;2023-04-10T00:46:47;102008.16;;;10.02;54.82
68871;BME280;55906;52.278;6.808;2023-04-10T00:49:16;102001.84;;;9.98;55.28
68871;BME280;55906;52.278;6.808;2023-04-10T00:51:44;102002.75;;;9.99;55.30
68871;BME280;55906;52.278;6.808;2023-04-10T00:54:14;101998.38;;;9.99;55.38
68871;BME280;55906;52.278;6.808;2023-04-10T00:56:42;101999.06;;;9.95;55.27
68871;BME280;55906;52.278;6.808;2023-04-10T00:59:09;102004.41;;;9.97;55.02
68871;BME280;55906;52.278;6.808;2023-04-10T01:01:38;102001.56;;;9.92;55.71
68871;BME280;55906;52.278;6.808;2023-04-10T01:04:08;102002.38;;;9.91;55.40
68871;BME280;55906;52.278;6.808;2023-04-10T01:06:57;101991.03;;;9.92;55.60
68871;BME280;55906;52.278;6.808;2023-04-10T01:09:43;101990.22;;;9.93;55.77
68871;BME280;55906;52.278;6.808;2023-04-10T01:12:24;101976.94;;;9.90;55.52
68871;BME280;55906;52.278;6.808;2023-04-10T01:15:03;101976.66;;;9.84;55.67
68871;BME280;55906;52.278;6.808;2023-04-10T01:17:36;101970.34;;;9.80;55.67
68871;BME280;55906;52.278;6.808;2023-04-10T01:20:09;101966.63;;;9.75;56.14
68871;BME280;55906;52.278;6.808;2023-04-10T01:22:48;101971.03;;;9.76;55.80
68871;BME280;55906;52.278;6.808;2023-04-10T01:25:33;101968.19;;;9.72;56.02
68871;BME280;55906;52.278;6.808;2023-04-10T01:28:20;101963.69;;;9.69;56.48
68871;BME280;55906;52.278;6.808;2023-04-10T01:30:53;101959.28;;;9.68;56.09
68871;BME280;55906;52.278;6.808;2023-04-10T01:33:33;101952.06;;;9.64;56.38
68871;BME280;55906;52.278;6.808;2023-04-10T01:36:02;101961.59;;;9.62;56.19
68871;BME280;55906;52.278;6.808;2023-04-10T01:38:32;101969.50;;;9.62;56.37
68871;BME280;55906;52.278;6.808;2023-04-10T01:41:00;101961.59;;;9.62;55.74
68871;BME280;55906;52.278;6.808;2023-04-10T01:43:28;101965.91;;;9.60;56.19
68871;BME280;55906;52.278;6.808;2023-04-10T01:45:58;101957.13;;;9.59;56.29
68871;BME280;55906;52.278;6.808;2023-04-10T01:48:25;101958.63;;;9.54;56.27
68871;BME280;55906;52.278;6.808;2023-04-10T01:50:53;101959.44;;;9.53;56.73
68871;BME280;55906;52.278;6.808;2023-04-10T01:53:21;101954.94;;;9.51;56.68
68871;BME280;55906;52.278;6.808;2023-04-10T01:55:49;101946.25;;;9.52;56.62
68871;BME280;55906;52.278;6.808;2023-04-10T01:58:16;101953.16;;;9.50;56.53
68871;BME280;55906;52.278;6.808;2023-04-10T02:00:43;101944.38;;;9.49;56.58
68871;BME280;55906;52.278;6.808;2023-04-10T02:03:11;101942.66;;;9.50;56.67
68871;BME280;55906;52.278;6.808;2023-04-10T02:05:45;101944.59;;;9.54;56.30
68871;BME280;55906;52.278;6.808;2023-04-10T02:08:17;101946.03;;;9.47;56.71
68871;BME280;55906;52.278;6.808;2023-04-10T02:10:50;101950.53;;;9.50;56.82
68871;BME280;55906;52.278;6.808;2023-04-10T02:13:20;101944.38;;;9.49;56.99
68871;BME280;55906;52.278;6.808;2023-04-10T02:15:49;101939.94;;;9.48;56.62
68871;BME280;55906;52.278;6.808;2023-04-10T02:18:18;101943.47;;;9.49;56.84
68871;BME280;55906;52.278;6.808;2023-04-10T02:20:46;101943.25;;;9.44;57.29
68871;BME280;55906;52.278;6.808;2023-04-10T02:23:14;101942.50;;;9.47;57.36
68871;BME280;55906;52.278;6.808;2023-04-10T02:25:42;101945.06;;;9.45;57.15
68871;BME280;55906;52.278;6.808;2023-04-10T02:28:09;101944.06;;;9.43;57.31
68871;BME280;55906;52.278;6.808;2023-04-10T02:30:35;101950.16;;;9.42;56.95
68871;BME280;55906;52.278;6.808;2023-04-10T02:33:03;101946.72;;;9.43;57.24
68871;BME280;55906;52.278;6.808;2023-04-10T02:35:32;101933.50;;;9.42;57.06
68871;BME280;55906;52.278;6.808;2023-04-10T02:37:58;101936.06;;;9.40;57.04
68871;BME280;55906;52.278;6.808;2023-04-10T02:40:25;101931.78;;;9.42;56.91
68871;BME280;55906;52.278;6.808;2023-04-10T02:42:52;101934.19;;;9.38;57.56
68871;BME280;55906;52.278;6.808;2023-04-10T02:45:19;101931.56;;;9.38;57.34
68871;BME280;55906;52.278;6.808;2023-04-10T02:47:46;101928.78;;;9.35;57.40
68871;BME280;55906;52.278;6.808;2023-04-10T02:50:13;101925.25;;;9.34;57.36
68871;BME280;55906;52.278;6.808;2023-04-10T02:52:45;101919.88;;;9.31;57.44
68871;BME280;55906;52.278;6.808;2023-04-10T02:55:12;101924.22;;;9.30;57.49
68871;BME280;55906;52.278;6.808;2023-04-10T02:57:39;101913.94;;;9.35;57.48
68871;BME280;55906;52.278;6.808;2023-04-10T03:00:08;101909.22;;;9.28;57.88
68871;BME280;55906;52.278;6.808;2023-04-10T03:02:36;101901.19;;;9.25;57.99
68871;BME280;55906;52.278;6.808;2023-04-10T03:05:05;101903.06;;;9.27;57.79
68871;BME280;55906;52.278;6.808;2023-04-10T03:07:59;101903.22;;;9.30;57.65
68871;BME280;55906;52.278;6.808;2023-04-10T03:10:27;101897.66;;;9.24;58.15
68871;BME280;55906;52.278;6.808;2023-04-10T03:12:55;101895.94;;;9.25;57.69
68871;BME280;55906;52.278;6.808;2023-04-10T03:15:22;101900.22;;;9.23;57.85
68871;BME280;55906;52.278;6.808;2023-04-10T03:17:49;101894.97;;;9.23;57.83
68871;BME280;55906;52.278;6.808;2023-04-10T03:20:16;101896.75;;;9.24;57.83
68871;BME280;55906;52.278;6.808;2023-04-10T03:22:43;101895.66;;;9.19;58.03
68871;BME280;55906;52.278;6.808;2023-04-10T03:25:11;101892.28;;;9.21;58.01
68871;BME280;55906;52.278;6.808;2023-04-10T03:27:39;101901.88;;;9.21;57.95
68871;BME280;55906;52.278;6.808;2023-04-10T03:30:08;101895.50;;;9.16;58.78
68871;BME280;55906;52.278;6.808;2023-04-10T03:32:35;101894.75;;;9.18;58.01
68871;BME280;55906;52.278;6.808;2023-04-10T03:35:04;101885.81;;;9.15;57.95
68871;BME280;55906;52.278;6.808;2023-04-10T03:37:30;101886.50;;;9.11;58.11
68871;BME280;55906;52.278;6.808;2023-04-10T03:39:58;101891.22;;;9.18;58.03
68871;BME280;55906;52.278;6.808;2023-04-10T03:42:26;101890.19;;;9.14;58.38
68871;BME280;55906;52.278;6.808;2023-04-10T03:44:53;101889.28;;;9.14;58.10
68871;BME280;55906;52.278;6.808;2023-04-10T03:47:20;101900.81;;;9.17;57.80
68871;BME280;55906;52.278;6.808;2023-04-10T03:49:47;101890.09;;;9.13;57.98
68871;BME280;55906;52.278;6.808;2023-04-10T03:52:14;101895.28;;;9.11;57.97
68871;BME280;55906;52.278;6.808;2023-04-10T03:54:41;101897.97;;;9.13;57.83
68871;BME280;55906;52.278;6.808;2023-04-10T03:57:08;101898.72;;;9.10;57.84
68871;BME280;55906;52.278;6.808;2023-04-10T03:59:40;101887.16;;;9.07;58.10
68871;BME280;55906;52.278;6.808;2023-04-10T04:02:08;101885.06;;;8.99;58.68
68871;BME280;55906;52.278;6.808;2023-04-10T04:04:35;101891.97;;;8.97;58.65
68871;BME280;55906;52.278;6.808;2023-04-10T04:07:03;101887.59;;;8.98;58.22
68871;BME280;55906;52.278;6.808;2023-04-10T04:09:31;101880.47;;;8.95;58.46
68871;BME280;55906;52.278;6.808;2023-04-10T04:11:58;101888.13;;;8.91;58.54
68871;BME280;55906;52.278;6.808;2023-04-10T04:14:25;101891.66;;;8.91;58.61
68871;BME280;55906;52.278;6.808;2023-04-10T04:16:53;101882.75;;;8.88;58.95
68871;BME280;55906;52.278;6.808;2023-04-10T04:19:20;101879.00;;;8.83;58.92
68871;BME280;55906;52.278;6.808;2023-04-10T04:21:46;101880.72;;;8.82;58.99
68871;BME280;55906;52.278;6.808;2023-04-10T04:24:13;101881.31;;;8.77;59.07
68871;BME280;55906;52.278;6.808;2023-04-10T04:26:40;101885.66;;;8.76;59.23
68871;BME280;55906;52.278;6.808;2023-04-10T04:29:07;101882.88;;;8.73;59.18
68871;BME280;55906;52.278;6.808;2023-04-10T04:31:34;101876.81;;;8.74;59.14
68871;BME280;55906;52.278;6.808;2023-04-10T04:34:03;101875.75;;;8.71;59.18
68871;BME280;55906;52.278;6.808;2023-04-10T04:36:29;101871.19;;;8.66;59.60
68871;BME280;55906;52.278;6.808;2023-04-10T04:38:56;101874.56;;;8.64;59.17
68871;BME280;55906;52.278;6.808;2023-04-10T04:41:23;101872.69;;;8.61;60.39
68871;BME280;55906;52.278;6.808;2023-04-10T04:43:50;101868.25;;;8.60;59.40
68871;BME280;55906;52.278;6.808;2023-04-10T04:46:17;101865.56;;;8.59;60.15
68871;BME280;55906;52.278;6.808;2023-04-10T04:48:44;101869.00;;;8.58;60.27
68871;BME280;55906;52.278;6.808;2023-04-10T04:51:12;101859.25;;;8.55;59.47
68871;BME280;55906;52.278;6.808;2023-04-10T04:53:39;101867.22;;;8.57;60.16
68871;BME280;55906;52.278;6.808;2023-04-10T04:56:07;101870.66;;;8.56;60.03
68871;BME280;55906;52.278;6.808;2023-04-10T04:58:34;101867.06;;;8.54;60.07
68871;BME280;55906;52.278;6.808;2023-04-10T05:01:03;101865.34;;;8.54;60.28
68871;BME280;55906;52.278;6.808;2023-04-10T05:03:30;101858.22;;;8.52;60.29
68871;BME280;55906;52.278;6.808;2023-04-10T05:05:57;101865.41;;;8.56;60.78
68871;BME280;55906;52.278;6.808;2023-04-10T05:08:25;101862.88;;;8.57;59.99
68871;BME280;55906;52.278;6.808;2023-04-10T05:10:53;101859.41;;;8.58;59.83
68871;BME280;55906;52.278;6.808;2023-04-10T05:13:20;101853.44;;;8.61;60.41
68871;BME280;55906;52.278;6.808;2023-04-10T05:15:47;101855.22;;;8.62;59.93
68871;BME280;55906;52.278;6.808;2023-04-10T05:18:14;101853.66;;;8.65;59.93
68871;BME280;55906;52.278;6.808;2023-04-10T05:20:45;101848.47;;;8.67;60.19
68871;BME280;55906;52.278;6.808;2023-04-10T05:23:12;101849.47;;;8.69;59.86
68871;BME280;55906;52.278;6.808;2023-04-10T05:25:41;101846.16;;;8.73;59.98
68871;BME280;55906;52.278;6.808;2023-04-10T05:28:08;101844.44;;;8.74;59.80
68871;BME280;55906;52.278;6.808;2023-04-10T05:30:35;101846.53;;;8.81;59.59
68871;BME280;55906;52.278;6.808;2023-04-10T05:33:02;101849.38;;;8.85;59.61
68871;BME280;55906;52.278;6.808;2023-04-10T05:35:29;101843.44;;;8.89;59.52
68871;BME280;55906;52.278;6.808;2023-04-10T05:37:56;101849.06;;;8.97;58.93
68871;BME280;55906;52.278;6.808;2023-04-10T05:40:25;101846.53;;;8.98;59.01
68871;BME280;55906;52.278;6.808;2023-04-10T05:42:53;101848.59;;;9.06;58.87
68871;BME280;55906;52.278;6.808;2023-04-10T05:45:20;101850.56;;;9.10;58.56
68871;BME280;55906;52.278;6.808;2023-04-10T05:47:47;101849.22;;;9.18;58.49
68871;BME280;55906;52.278;6.808;2023-04-10T05:50:14;101848.13;;;9.32;57.42
68871;BME280;55906;52.278;6.808;2023-04-10T05:52:41;101848.44;;;9.38;56.91
68871;BME280;55906;52.278;6.808;2023-04-10T05:55:08;101841.03;;;9.49;57.07
68871;BME280;55906;52.278;6.808;2023-04-10T05:57:35;101837.09;;;9.58;56.86
68871;BME280;55906;52.278;6.808;2023-04-10T06:00:05;101839.25;;;9.67;56.70
68871;BME280;55906;52.278;6.808;2023-04-10T06:02:33;101833.50;;;9.76;55.93
68871;BME280;55906;52.278;6.808;2023-04-10T06:05:01;101831.69;;;9.94;55.38
68871;BME280;55906;52.278;6.808;2023-04-10T06:07:28;101832.16;;;10.05;54.97
68871;BME280;55906;52.278;6.808;2023-04-10T06:09:56;101823.75;;;10.13;55.23
68871;BME280;55906;52.278;6.808;2023-04-10T06:12:23;101817.25;;;10.24;54.54
68871;BME280;55906;52.278;6.808;2023-04-10T06:14:50;101816.94;;;10.38;54.10
68871;BME280;55906;52.278;6.808;2023-04-10T06:17:20;101804.19;;;10.47;53.42
68871;BME280;55906;52.278;6.808;2023-04-10T06:19:51;101814.34;;;10.58;53.25
68871;BME280;55906;52.278;6.808;2023-04-10T06:22:20;101810.22;;;10.65;52.79
68871;BME280;55906;52.278;6.808;2023-04-10T06:24:47;101807.06;;;10.74;52.54
68871;BME280;55906;52.278;6.808;2023-04-10T06:27:14;101812.03;;;10.88;52.08
68871;BME280;55906;52.278;6.808;2023-04-10T06:29:41;101804.50;;;10.98;52.14
68871;BME280;55906;52.278;6.808;2023-04-10T06:32:08;101810.34;;;11.13;51.62
68871;BME280;55906;52.278;6.808;2023-04-10T06:34:37;101803.66;;;11.21;51.06
68871;BME280;55906;52.278;6.808;2023-04-10T06:37:04;101806.75;;;11.33;50.87
68871;BME280;55906;52.278;6.808;2023-04-10T06:39:31;101803.84;;;11.49;49.76
68871;BME280;55906;52.278;6.808;2023-04-10T06:41:59;101809.28;;;11.54;49.87
68871;BME280;55906;52.278;6.808;2023-04-10T06:44:26;101804.28;;;11.62;49.03
68871;BME280;55906;52.278;6.808;2023-04-10T06:46:53;101798.28;;;11.66;49.71
68871;BME280;55906;52.278;6.808;2023-04-10T06:49:21;101793.13;;;11.69;49.25
68871;BME280;55906;52.278;6.808;2023-04-10T06:51:50;101787.16;;;11.73;49.05
68871;BME280;55906;52.278;6.808;2023-04-10T06:54:17;101790.81;;;11.76;48.75
68871;BME280;55906;52.278;6.808;2023-04-10T06:56:45;101782.97;;;11.78;48.67
68871;BME280;55906;52.278;6.808;2023-04-10T06:59:12;101779.50;;;11.79;49.20
68871;BME280;55906;52.278;6.808;2023-04-10T07:01:39;101785.00;;;11.85;48.53
68871;BME280;55906;52.278;6.808;2023-04-10T07:04:07;101775.50;;;11.90;48.66
68871;BME280;55906;52.278;6.808;2023-04-10T07:06:34;101775.94;;;12.02;48.75
68871;BME280;55906;52.278;6.808;2023-04-10T07:09:08;101772.66;;;12.09;48.22
68871;BME280;55906;52.278;6.808;2023-04-10T07:11:35;101760.72;;;12.21;47.92
68871;BME280;55906;52.278;6.808;2023-04-10T07:14:02;101767.31;;;12.33;47.89
68871;BME280;55906;52.278;6.808;2023-04-10T07:16:50;101756.31;;;12.46;47.39
68871;BME280;55906;52.278;6.808;2023-04-10T07:19:18;101751.47;;;12.60;47.01
68871;BME280;55906;52.278;6.808;2023-04-10T07:21:45;101756.00;;;12.64;46.77
68871;BME280;55906;52.278;6.808;2023-04-10T07:24:16;101749.97;;;12.68;47.07
68871;BME280;55906;52.278;6.808;2023-04-10T07:26:49;101741.09;;;12.66;46.22
68871;BME280;55906;52.278;6.808;2023-04-10T07:29:16;101734.06;;;12.67;46.72
68871;BME280;55906;52.278;6.808;2023-04-10T07:31:43;101720.16;;;12.72;46.08
68871;BME280;55906;52.278;6.808;2023-04-10T07:34:11;101729.88;;;12.73;46.08
68871;BME280;55906;52.278;6.808;2023-04-10T07:36:38;101722.91;;;12.75;45.67
68871;BME280;55906;52.278;6.808;2023-04-10T07:39:05;101731.75;;;12.77;45.57
68871;BME280;55906;52.278;6.808;2023-04-10T07:41:33;101708.81;;;13.03;45.07
68871;BME280;55906;52.278;6.808;2023-04-10T07:44:00;101710.56;;;13.03;44.81
68871;BME280;55906;52.278;6.808;2023-04-10T07:46:27;101708.19;;;13.12;44.99
68871;BME280;55906;52.278;6.808;2023-04-10T07:48:54;101702.38;;;13.24;44.56
68871;BME280;55906;52.278;6.808;2023-04-10T07:51:22;101694.59;;;13.28;44.14
68871;BME280;55906;52.278;6.808;2023-04-10T07:53:50;101688.09;;;13.49;43.43
68871;BME280;55906;52.278;6.808;2023-04-10T07:56:18;101688.47;;;13.62;43.65
68871;BME280;55906;52.278;6.808;2023-04-10T07:58:49;101680.03;;;13.77;43.29
68871;BME280;55906;52.278;6.808;2023-04-10T08:01:39;101671.63;;;13.93;42.74
68871;BME280;55906;52.278;6.808;2023-04-10T08:04:07;101665.38;;;13.90;42.86
68871;BME280;55906;52.278;6.808;2023-04-10T08:06:35;101662.66;;;13.87;42.42
68871;BME280;55906;52.278;6.808;2023-04-10T08:09:02;101652.59;;;14.08;42.39
68871;BME280;55906;52.278;6.808;2023-04-10T08:11:30;101638.94;;;14.27;41.85
68871;BME280;55906;52.278;6.808;2023-04-10T08:13:59;101627.00;;;14.43;41.96
68871;BME280;55906;52.278;6.808;2023-04-10T08:16:28;101643.25;;;14.58;41.12
68871;BME280;55906;52.278;6.808;2023-04-10T08:18:55;101627.75;;;14.77;41.07
68871;BME280;55906;52.278;6.808;2023-04-10T08:21:23;101633.28;;;14.89;40.90
68871;BME280;55906;52.278;6.808;2023-04-10T08:23:51;101618.78;;;15.15;40.18
68871;BME280;55906;52.278;6.808;2023-04-10T08:26:18;101625.59;;;15.48;40.17
68871;BME280;55906;52.278;6.808;2023-04-10T08:28:46;101616.38;;;15.73;39.55
68871;BME280;55906;52.278;6.808;2023-04-10T08:31:16;101611.34;;;15.89;38.63
68871;BME280;55906;52.278;6.808;2023-04-10T08:33:43;101612.44;;;16.04;38.21
68871;BME280;55906;52.278;6.808;2023-04-10T08:36:10;101613.06;;;15.87;38.14
68871;BME280;55906;52.278;6.808;2023-04-10T08:38:37;101616.09;;;16.12;37.71
68871;BME280;55906;52.278;6.808;2023-04-10T08:41:05;101613.66;;;16.25;37.61
68871;BME280;55906;52.278;6.808;2023-04-10T08:43:31;101609.41;;;16.38;37.88
68871;BME280;55906;52.278;6.808;2023-04-10T08:46:00;101609.66;;;16.56;36.96
68871;BME280;55906;52.278;6.808;2023-04-10T08:48:33;101612.22;;;16.50;37.01
68871;BME280;55906;52.278;6.808;2023-04-10T08:51:03;101606.72;;;16.35;36.99
68871;BME280;55906;52.278;6.808;2023-04-10T08:53:30;101608.41;;;16.30;37.25
68871;BME280;55906;52.278;6.808;2023-04-10T08:56:03;101596.91;;;16.31;37.18
68871;BME280;55906;52.278;6.808;2023-04-10T08:58:30;101608.41;;;16.30;37.68
68871;BME280;55906;52.278;6.808;2023-04-10T09:00:57;101602.91;;;16.18;37.93
68871;BME280;55906;52.278;6.808;2023-04-10T09:03:27;101613.78;;;16.35;37.44
68871;BME280;55906;52.278;6.808;2023-04-10T09:05:55;101611.97;;;16.30;37.58
68871;BME280;55906;52.278;6.808;2023-04-10T09:08:22;101613.38;;;16.07;37.81
68871;BME280;55906;52.278;6.808;2023-04-10T09:10:48;101613.53;;;16.16;38.01
68871;BME280;55906;52.278;6.808;2023-04-10T09:13:15;101599.09;;;16.61;37.81
68871;BME280;55906;52.278;6.808;2023-04-10T09:15:54;101600.50;;;17.00;36.94
68871;BME280;55906;52.278;6.808;2023-04-10T09:18:22;101601.81;;;17.40;37.15
68871;BME280;55906;52.278;6.808;2023-04-10T09:21:07;101600.25;;;17.62;35.68
68871;BME280;55906;52.278;6.808;2023-04-10T09:23:34;101591.56;;;17.81;35.39
68871;BME280;55906;52.278;6.808;2023-04-10T09:26:00;101593.25;;;17.68;35.54
68871;BME280;55906;52.278;6.808;2023-04-10T09:28:27;101582.63;;;17.71;35.35
68871;BME280;55906;52.278;6.808;2023-04-10T09:30:54;101583.63;;;17.87;35.56
68871;BME280;55906;52.278;6.808;2023-04-10T09:33:22;101585.38;;;17.82;35.42
68871;BME280;55906;52.278;6.808;2023-04-10T09:35:49;101556.06;;;17.80;35.38
68871;BME280;55906;52.278;6.808;2023-04-10T09:38:18;101564.16;;;17.94;35.16
68871;BME280;55906;52.278;6.808;2023-04-10T09:40:46;101557.06;;;17.93;35.31
68871;BME280;55906;52.278;6.808;2023-04-10T09:43:18;101564.16;;;17.94;35.67
68871;BME280;55906;52.278;6.808;2023-04-10T09:45:47;101555.44;;;18.19;34.75
68871;BME280;55906;52.278;6.808;2023-04-10T09:48:14;101539.50;;;18.21;34.57
68871;BME280;55906;52.278;6.808;2023-04-10T09:50:41;101544.94;;;18.42;34.37
68871;BME280;55906;52.278;6.808;2023-04-10T09:53:08;101548.50;;;18.49;34.25
68871;BME280;55906;52.278;6.808;2023-04-10T09:55:36;101551.22;;;18.57;33.65
68871;BME280;55906;52.278;6.808;2023-04-10T09:58:04;101559.16;;;18.49;33.73
68871;BME280;55906;52.278;6.808;2023-04-10T10:00:36;101546.84;;;18.71;33.11
68871;BME280;55906;52.278;6.808;2023-04-10T10:03:07;101546.00;;;18.79;33.04
68871;BME280;55906;52.278;6.808;2023-04-10T10:05:35;101532.66;;;18.84;33.08
68871;BME280;55906;52.278;6.808;2023-04-10T10:08:02;101528.28;;;19.13;32.20
68871;BME280;55906;52.278;6.808;2023-04-10T10:10:29;101527.41;;;19.34;32.02
68871;BME280;55906;52.278;6.808;2023-04-10T10:12:59;101507.84;;;19.25;31.90
68871;BME280;55906;52.278;6.808;2023-04-10T10:15:37;101499.84;;;19.28;31.70
68871;BME280;55906;52.278;6.808;2023-04-10T10:18:12;101493.59;;;19.33;32.29
68871;BME280;55906;52.278;6.808;2023-04-10T10:20:44;101500.72;;;19.13;31.94
68871;BME280;55906;52.278;6.808;2023-04-10T10:23:12;101479.38;;;19.33;31.88
68871;BME280;55906;52.278;6.808;2023-04-10T10:25:39;101477.59;;;19.48;31.89
68871;BME280;55906;52.278;6.808;2023-04-10T10:28:11;101460.75;;;19.54;31.60
68871;BME280;55906;52.278;6.808;2023-04-10T10:30:39;101457.19;;;19.61;31.16
68871;BME280;55906;52.278;6.808;2023-04-10T10:33:06;101450.06;;;19.60;31.31
68871;BME280;55906;52.278;6.808;2023-04-10T10:35:33;101431.31;;;19.49;31.59
68871;BME280;55906;52.278;6.808;2023-04-10T10:38:02;101450.03;;;19.72;31.50
68871;BME280;55906;52.278;6.808;2023-04-10T10:40:31;101445.59;;;19.71;31.57
68871;BME280;55906;52.278;6.808;2023-04-10T10:43:06;101430.47;;;19.66;31.36
68871;BME280;55906;52.278;6.808;2023-04-10T10:45:40;101428.66;;;19.45;31.57
68871;BME280;55906;52.278;6.808;2023-04-10T10:48:09;101443.81;;;19.20;32.12
68871;BME280;55906;52.278;6.808;2023-04-10T10:50:52;101424.25;;;19.55;32.08
68871;BME280;55906;52.278;6.808;2023-04-10T10:53:35;101442.91;;;19.68;31.79
68871;BME280;55906;52.278;6.808;2023-04-10T10:56:36;101417.97;;;19.49;31.58
68871;BME280;55906;52.278;6.808;2023-04-10T10:59:02;101410.88;;;19.44;31.85
68871;BME280;55906;52.278;6.808;2023-04-10T11:01:30;101402.88;;;19.45;31.76
68871;BME280;55906;52.278;6.808;2023-04-10T11:03:57;101396.66;;;19.27;32.20
68871;BME280;55906;52.278;6.808;2023-04-10T11:06:47;101411.78;;;19.23;32.54
68871;BME280;55906;52.278;6.808;2023-04-10T11:09:43;101397.56;;;19.12;32.35
68871;BME280;55906;52.278;6.808;2023-04-10T11:12:11;101399.34;;;19.10;32.79
68871;BME280;55906;52.278;6.808;2023-04-10T11:14:38;101402.03;;;19.07;33.34
68871;BME280;55906;52.278;6.808;2023-04-10T11:17:08;101402.91;;;19.18;33.30
68871;BME280;55906;52.278;6.808;2023-04-10T11:19:58;101389.56;;;19.04;33.11
68871;BME280;55906;52.278;6.808;2023-04-10T11:22:26;101402.91;;;19.09;33.11
68871;BME280;55906;52.278;6.808;2023-04-10T11:24:55;101385.13;;;19.06;33.25
68871;BME280;55906;52.278;6.808;2023-04-10T11:27:39;101374.44;;;19.26;33.08
68871;BME280;55906;52.278;6.808;2023-04-10T11:30:31;101376.22;;;19.56;32.92
68871;BME280;55906;52.278;6.808;2023-04-10T11:33:01;101360.19;;;19.59;32.43
68871;BME280;55906;52.278;6.808;2023-04-10T11:35:29;101364.59;;;19.69;32.43
68871;BME280;55906;52.278;6.808;2023-04-10T11:38:14;101363.66;;;19.79;32.60
68871;BME280;55906;52.278;6.808;2023-04-10T11:40:59;101353.81;;;19.94;32.94
68871;BME280;55906;52.278;6.808;2023-04-10T11:43:27;101350.28;;;19.84;32.63
68871;BME280;55906;52.278;6.808;2023-04-10T11:46:01;101346.72;;;19.90;32.58
68871;BME280;55906;52.278;6.808;2023-04-10T11:48:29;101318.25;;;19.83;32.46
68871;BME280;55906;52.278;6.808;2023-04-10T11:50:56;101337.00;;;19.75;32.93
68871;BME280;55906;52.278;6.808;2023-04-10T11:53:25;101333.28;;;20.02;32.56
68871;BME280;55906;52.278;6.808;2023-04-10T11:55:54;101324.47;;;19.89;32.64
68871;BME280;55906;52.278;6.808;2023-04-10T11:58:22;101332.38;;;20.06;31.77
68871;BME280;55906;52.278;6.808;2023-04-10T12:00:55;101319.06;;;19.97;32.32
68871;BME280;55906;52.278;6.808;2023-04-10T12:03:35;101317.31;;;19.91;32.38
68871;BME280;55906;52.278;6.808;2023-04-10T12:06:02;101313.81;;;19.85;32.33
68871;BME280;55906;52.278;6.808;2023-04-10T12:08:30;101294.22;;;19.81;32.16
68871;BME280;55906;52.278;6.808;2023-04-10T12:10:58;101310.13;;;20.05;32.18
68871;BME280;55906;52.278;6.808;2023-04-10T12:13:25;101300.19;;;20.27;32.03
68871;BME280;55906;52.278;6.808;2023-04-10T12:15:52;101300.00;;;20.53;31.94
68871;BME280;55906;52.278;6.808;2023-04-10T12:18:19;101274.88;;;20.74;31.17
68871;BME280;55906;52.278;6.808;2023-04-10T12:20:47;101295.47;;;20.63;31.56
68871;BME280;55906;52.278;6.808;2023-04-10T12:23:16;101293.72;;;20.60;30.99
68871;BME280;55906;52.278;6.808;2023-04-10T12:25:43;101290.00;;;20.76;31.11
68871;BME280;55906;52.278;6.808;2023-04-10T12:28:16;101268.47;;;20.95;31.06
68871;BME280;55906;52.278;6.808;2023-04-10T12:30:46;101275.47;;;21.06;30.22
68871;BME280;55906;52.278;6.808;2023-04-10T12:33:12;101261.72;;;21.40;30.04
68871;BME280;55906;52.278;6.808;2023-04-10T12:35:40;101257.94;;;21.56;29.71
68871;BME280;55906;52.278;6.808;2023-04-10T12:38:09;101248.34;;;22.06;28.70
68871;BME280;55906;52.278;6.808;2023-04-10T12:40:36;101255.41;;;22.10;28.61
68871;BME280;55906;52.278;6.808;2023-04-10T12:43:05;101254.41;;;22.20;28.35
68871;BME280;55906;52.278;6.808;2023-04-10T12:45:41;101247.88;;;21.73;28.76
68871;BME280;55906;52.278;6.808;2023-04-10T12:48:08;101248.06;;;21.61;28.83
68871;BME280;55906;52.278;6.808;2023-04-10T12:50:45;101242.28;;;21.26;29.88
68871;BME280;55906;52.278;6.808;2023-04-10T12:53:13;101236.44;;;20.87;30.45
68871;BME280;55906;52.278;6.808;2023-04-10T12:55:40;101221.50;;;20.63;30.31
68871;BME280;55906;52.278;6.808;2023-04-10T12:58:17;101232.25;;;20.56;30.31
68871;BME280;55906;52.278;6.808;2023-04-10T13:00:45;101236.88;;;20.32;30.85
68871;BME280;55906;52.278;6.808;2023-04-10T13:03:12;101226.28;;;20.23;30.62
68871;BME280;55906;52.278;6.808;2023-04-10T13:05:42;101223.69;;;20.12;30.86
68871;BME280;55906;52.278;6.808;2023-04-10T13:08:10;101211.31;;;20.01;31.32